Time;durP1;ratioP1;P1;durP2;ratioP2;P2;SDS_P1;SDS_P2;PMS_P1;PMS_P2;Temp;Humidity;BMP_temperature;BMP_pressure;BME280_temperature;BME280_humidity;BME280_pressure;Samples;Min_cycle;Max_cycle;Signal;HPM_P1;HPM_P2
2022/10/23 00:00:15;;;;;;;0.50;0.50;;;11.70;99.90;;;;;;5008558;28;20036;-83
2022/10/23 00:02:41;;;;;;;0.50;0.50;;;11.70;99.90;;;;;;5044734;28;20062;-85
2022/10/23 00:05:08;;;;;;;0.50;0.50;;;11.80;99.90;;;;;;5034887;28;20249;-85
2022/10/23 00:07:34;;;;;;;0.50;0.50;;;11.80;99.90;;;;;;5030932;28;20043;-85
2022/10/23 00:10:00;;;;;;;0.50;0.50;;;11.80;99.90;;;;;;5016935;28;20476;-85
2022/10/23 00:12:27;;;;;;;0.50;0.50;;;11.80;99.90;;;;;;5046425;28;20101;-86
2022/10/23 00:14:53;;;;;;;0.50;0.50;;;11.80;99.90;;;;;;5021863;28;20066;-85
2022/10/23 00:17:24;;;;;;;0.50;0.50;;;11.70;99.90;;;;;;5033213;28;20053;-85
2022/10/23 00:19:50;;;;;;;0.50;0.50;;;11.70;99.90;;;;;;5027656;28;20043;-86
2022/10/23 00:22:16;;;;;;;0.50;0.50;;;11.80;99.90;;;;;;5027620;28;20086;-84
2022/10/23 00:24:45;;;;;;;0.50;0.50;;;11.70;99.90;;;;;;5036504;28;20047;-85
2022/10/23 00:27:11;;;;;;;0.50;0.50;;;11.70;99.90;;;;;;5016718;28;20111;-85
2022/10/23 00:29:37;;;;;;;0.50;0.50;;;11.70;99.90;;;;;;5046822;28;20051;-84
2022/10/23 00:32:03;;;;;;;0.50;0.50;;;11.60;99.90;;;;;;5090708;28;20042;-85
2022/10/23 00:34:29;;;;;;;0.50;0.50;;;11.60;99.90;;;;;;5079189;28;20480;-85
2022/10/23 00:36:58;;;;;;;0.50;0.50;;;11.70;99.90;;;;;;5083021;28;20066;-85
2022/10/23 00:39:24;;;;;;;0.50;0.50;;;11.70;99.90;;;;;;5085848;28;20051;-85
2022/10/23 00:41:50;;;;;;;0.50;0.50;;;11.70;99.90;;;;;;5082052;28;20732;-85
2022/10/23 00:44:17;;;;;;;0.50;0.50;;;11.60;99.90;;;;;;5071698;27;20182;-85
2022/10/23 00:46:43;;;;;;;0.50;0.50;;;11.60;99.90;;;;;;5093052;27;20765;-85
2022/10/23 00:49:09;;;;;;;0.50;0.50;;;11.60;99.90;;;;;;5088141;27;20043;-85
2022/10/23 00:51:43;;;;;;;0.50;0.50;;;11.50;99.90;;;;;;5087292;27;20217;-85
2022/10/23 00:54:23;;;;;;;0.60;0.60;;;11.40;99.90;;;;;;5082037;27;20087;-86
2022/10/23 00:56:55;;;;;;;0.50;0.50;;;11.50;99.90;;;;;;5076592;27;20542;-85
2022/10/23 00:59:22;;;;;;;0.50;0.50;;;11.40;99.90;;;;;;5068086;27;20099;-85
2022/10/23 01:01:55;;;;;;;0.50;0.50;;;11.40;99.90;;;;;;5044385;27;20055;-85
2022/10/23 01:04:25;;;;;;;0.50;0.50;;;11.40;99.90;;;;;;5055688;27;20089;-85
2022/10/23 01:07:15;;;;;;;0.50;0.50;;;11.50;99.90;;;;;;5052490;27;20099;-85
2022/10/23 01:10:09;;;;;;;0.50;0.50;;;11.40;99.90;;;;;;5056238;27;20503;-85
2022/10/23 01:12:39;;;;;;;0.50;0.50;;;11.40;99.90;;;;;;5055655;27;20078;-86
2022/10/23 01:15:17;;;;;;;0.50;0.50;;;11.40;99.90;;;;;;5029475;27;20568;-85
2022/10/23 01:17:55;;;;;;;0.50;0.50;;;11.40;99.90;;;;;;5039368;27;20065;-85
2022/10/23 01:20:30;;;;;;;0.50;0.50;;;11.50;99.90;;;;;;5046918;27;20267;-85
2022/10/23 01:23:26;;;;;;;0.50;0.50;;;11.50;99.90;;;;;;5040822;27;20416;-85
2022/10/23 01:26:26;;;;;;;0.50;0.50;;;11.40;99.90;;;;;;5056456;27;20043;-85
2022/10/23 01:29:11;;;;;;;0.50;0.50;;;11.50;99.90;;;;;;5051233;27;20819;-85
2022/10/23 01:31:45;;;;;;;0.50;0.50;;;11.40;99.90;;;;;;5052796;27;20047;-85
2022/10/23 01:34:30;;;;;;;0.50;0.50;;;11.40;99.90;;;;;;5054696;27;20053;-86
2022/10/23 01:37:25;;;;;;;0.50;0.50;;;11.50;99.90;;;;;;5057210;27;20527;-85
2022/10/23 01:40:02;;;;;;;0.50;0.50;;;11.50;99.90;;;;;;5055189;27;20058;-86
2022/10/23 01:42:53;;;;;;;0.50;0.50;;;11.50;99.90;;;;;;5041236;27;20042;-86
2022/10/23 01:45:44;;;;;;;0.50;0.50;;;11.40;99.90;;;;;;5059264;27;20102;-86
2022/10/23 01:48:24;;;;;;;0.57;0.57;;;11.40;99.90;;;;;;5071642;27;20043;-85
2022/10/23 01:51:03;;;;;;;0.50;0.50;;;11.30;99.90;;;;;;5043134;27;20448;-85
2022/10/23 01:53:33;;;;;;;0.50;0.50;;;11.30;99.90;;;;;;5043110;27;20065;-85
2022/10/23 01:56:28;;;;;;;0.60;0.60;;;11.40;99.90;;;;;;5041080;27;20527;-85
2022/10/23 01:59:28;;;;;;;0.50;0.50;;;11.30;99.90;;;;;;5052902;27;21144;-85
2022/10/23 02:02:00;;;;;;;0.50;0.50;;;11.30;99.90;;;;;;5061243;27;20093;-85
2022/10/23 02:05:13;;;;;;;0.50;0.50;;;11.40;99.90;;;;;;5008897;27;20730;-85
2022/10/23 02:07:55;;;;;;;0.60;0.60;;;11.30;99.90;;;;;;4994233;28;20488;-84
2022/10/23 02:11:11;;;;;;;0.50;0.50;;;11.30;99.90;;;;;;4994308;28;20130;-84
2022/10/23 02:14:16;;;;;;;0.50;0.50;;;11.30;99.90;;;;;;4998074;28;20104;-85
2022/10/23 02:17:27;;;;;;;0.50;0.50;;;11.30;99.90;;;;;;5030883;28;20108;-85
2022/10/23 02:20:20;;;;;;;0.50;0.50;;;11.40;99.90;;;;;;4986483;28;20063;-85
2022/10/23 02:23:07;;;;;;;0.50;0.50;;;11.30;99.90;;;;;;4998881;28;20874;-85
2022/10/23 02:25:47;;;;;;;0.50;0.50;;;11.20;99.90;;;;;;5015914;28;20051;-86
2022/10/23 02:28:18;;;;;;;0.50;0.50;;;11.20;99.90;;;;;;5013098;28;20060;-85
2022/10/23 02:31:13;;;;;;;0.50;0.50;;;11.10;99.90;;;;;;5012908;28;20055;-85
2022/10/23 02:33:45;;;;;;;0.50;0.50;;;11.10;99.90;;;;;;4994137;28;20650;-85
2022/10/23 02:36:28;;;;;;;0.50;0.50;;;11.20;99.90;;;;;;4999010;28;20533;-85
2022/10/23 02:39:01;;;;;;;0.50;0.50;;;11.20;99.90;;;;;;4985385;28;20118;-85
2022/10/23 02:41:58;;;;;;;0.50;0.50;;;11.10;99.90;;;;;;5021345;27;20348;-84
2022/10/23 02:44:53;;;;;;;0.60;0.60;;;11.20;99.90;;;;;;5051229;27;20042;-85
2022/10/23 02:47:37;;;;;;;0.50;0.50;;;11.10;99.90;;;;;;5037137;27;20046;-84
2022/10/23 02:50:23;;;;;;;0.60;0.60;;;11.10;99.90;;;;;;5038481;27;20082;-84
2022/10/23 02:53:10;;;;;;;0.50;0.50;;;11.10;99.90;;;;;;5048810;27;20046;-85
2022/10/23 02:56:07;;;;;;;0.50;0.50;;;11.20;99.90;;;;;;5042842;27;20051;-85
2022/10/23 02:59:13;;;;;;;0.50;0.50;;;11.20;99.90;;;;;;5038857;27;20051;-86
2022/10/23 03:01:57;;;;;;;0.50;0.50;;;11.20;99.90;;;;;;5049327;27;20256;-85
2022/10/23 03:04:30;;;;;;;0.50;0.50;;;11.20;99.90;;;;;;5045412;27;20062;-84
2022/10/23 03:06:58;;;;;;;0.50;0.50;;;11.10;99.90;;;;;;5033724;27;20055;-84
2022/10/23 03:09:28;;;;;;;0.50;0.50;;;11.20;99.90;;;;;;5064332;27;20051;-85
2022/10/23 03:12:07;;;;;;;0.50;0.50;;;11.20;99.90;;;;;;5048540;27;20054;-85
2022/10/23 03:14:36;;;;;;;0.50;0.50;;;11.30;99.90;;;;;;5028097;27;20047;-85
2022/10/23 03:17:14;;;;;;;0.50;0.50;;;11.20;99.90;;;;;;5036325;27;20046;-85
2022/10/23 03:19:40;;;;;;;0.50;0.50;;;11.20;99.90;;;;;;5051303;27;20772;-85
2022/10/23 03:22:14;;;;;;;0.50;0.50;;;11.20;99.90;;;;;;5020817;27;20372;-85
2022/10/23 03:24:59;;;;;;;0.50;0.50;;;11.20;99.90;;;;;;5052949;27;20170;-85
2022/10/23 03:27:39;;;;;;;0.50;0.50;;;11.10;99.90;;;;;;4999560;27;20126;-85
2022/10/23 03:30:48;;;;;;;0.50;0.50;;;11.10;99.90;;;;;;5040738;27;21268;-85
2022/10/23 03:33:25;;;;;;;0.50;0.50;;;11.10;99.90;;;;;;5018790;28;20047;-86
2022/10/23 03:35:54;;;;;;;0.50;0.50;;;11.00;99.90;;;;;;5037984;27;20518;-86
2022/10/23 03:38:51;;;;;;;0.50;0.50;;;11.00;99.90;;;;;;5056469;27;20401;-86
2022/10/23 03:41:41;;;;;;;0.50;0.50;;;11.00;99.90;;;;;;5030347;28;20150;-86
2022/10/23 03:44:20;;;;;;;;;;;;;;;;;;;;;
2022/10/23 03:47:06;;;;;;;0.50;0.50;;;10.90;99.90;;;;;;5060167;28;20150;-86
2022/10/23 03:50:18;;;;;;;;;;;;;;;;;;;;;
2022/10/23 03:52:56;;;;;;;0.50;0.50;;;10.80;99.90;;;;;;5048264;28;20047;-85
2022/10/23 03:55:32;;;;;;;0.50;0.50;;;10.70;99.90;;;;;;5053885;28;20035;-85
2022/10/23 03:58:07;;;;;;;0.50;0.50;;;10.70;99.90;;;;;;5030261;28;20043;-85
2022/10/23 04:00:34;;;;;;;0.50;0.50;;;10.80;99.90;;;;;;5034447;28;20548;-85
2022/10/23 04:03:18;;;;;;;0.60;0.60;;;10.80;99.90;;;;;;5037436;28;20123;-86
2022/10/23 04:09:18;;;;;;;0.60;0.60;;;10.70;99.90;;;;;;5042835;28;20496;-85
2022/10/23 04:12:19;;;;;;;0.60;0.60;;;10.70;99.90;;;;;;5033537;28;20043;-86
2022/10/23 04:14:50;;;;;;;0.60;0.60;;;10.70;99.90;;;;;;5053203;28;20222;-86
2022/10/23 04:17:20;;;;;;;0.50;0.50;;;10.70;99.90;;;;;;5035716;28;20138;-86
2022/10/23 04:19:49;;;;;;;0.60;0.60;;;10.70;99.90;;;;;;5045940;27;20504;-86
2022/10/23 04:22:18;;;;;;;0.50;0.50;;;10.70;99.90;;;;;;5032706;27;20096;-85
2022/10/23 04:24:46;;;;;;;0.50;0.50;;;10.70;99.90;;;;;;5053385;27;20035;-85
2022/10/23 04:27:18;;;;;;;0.50;0.50;;;10.70;99.90;;;;;;5041350;27;20524;-86
2022/10/23 04:30:36;;;;;;;0.50;0.50;;;10.80;99.90;;;;;;5058850;27;20119;-85
2022/10/23 04:33:21;;;;;;;0.50;0.50;;;10.80;99.90;;;;;;5052679;27;20389;-87
2022/10/23 04:35:49;;;;;;;0.60;0.60;;;10.80;99.90;;;;;;5052258;27;20062;-85
2022/10/23 04:38:26;;;;;;;0.50;0.50;;;10.80;99.90;;;;;;5041488;27;20528;-86
2022/10/23 04:40:58;;;;;;;0.50;0.50;;;10.70;99.90;;;;;;5055439;27;20253;-86
2022/10/23 04:43:27;;;;;;;0.50;0.50;;;10.70;99.90;;;;;;5037424;27;20350;-86
2022/10/23 04:46:03;;;;;;;0.60;0.60;;;10.70;99.90;;;;;;5034376;27;20397;-87
2022/10/23 04:48:53;;;;;;;0.50;0.50;;;10.70;99.90;;;;;;5030845;27;20575;-86
2022/10/23 04:51:28;;;;;;;0.50;0.50;;;10.70;99.90;;;;;;5049831;27;20078;-86
2022/10/23 04:53:54;;;;;;;0.50;0.50;;;10.70;99.90;;;;;;5020404;27;20132;-86
2022/10/23 04:56:29;;;;;;;0.50;0.50;;;10.70;99.90;;;;;;5053444;27;20101;-86
2022/10/23 04:58:58;;;;;;;0.50;0.50;;;10.60;99.90;;;;;;5054757;27;20126;-86
2022/10/23 05:02:09;;;;;;;0.50;0.50;;;10.60;99.90;;;;;;5030969;27;20344;-86
2022/10/23 05:04:39;;;;;;;0.50;0.50;;;10.60;99.90;;;;;;5043907;27;20042;-85
2022/10/23 05:07:34;;;;;;;;;;;;;;;;;;;;;
2022/10/23 05:10:03;;;;;;;0.50;0.50;;;10.60;99.90;;;;;;5063203;27;20471;-85
2022/10/23 05:12:38;;;;;;;0.50;0.50;;;10.70;99.90;;;;;;5035848;27;20262;-86
2022/10/23 05:15:29;;;;;;;0.50;0.50;;;10.70;99.90;;;;;;5058281;27;20568;-85
2022/10/23 05:21:34;;;;;;;0.50;0.50;;;10.60;99.90;;;;;;4972883;27;20100;-86
2022/10/23 05:24:31;;;;;;;0.50;0.50;;;10.70;99.90;;;;;;5055865;27;20047;-86
2022/10/23 05:27:02;;;;;;;;;;;10.60;99.90;;;;;;5070460;27;20115;-87
2022/10/23 05:29:28;;;;;;;0.50;0.50;;;10.60;99.90;;;;;;5044608;27;20322;-86
2022/10/23 05:32:10;;;;;;;0.50;0.50;;;10.60;99.90;;;;;;5037603;27;20472;-85
2022/10/23 05:34:46;;;;;;;0.50;0.50;;;10.70;99.90;;;;;;5060223;27;20043;-85
2022/10/23 05:37:14;;;;;;;0.50;0.50;;;10.60;99.90;;;;;;5055159;27;20551;-85
2022/10/23 05:40:05;;;;;;;0.50;0.50;;;10.60;99.90;;;;;;5056257;27;20125;-85
2022/10/23 05:42:36;;;;;;;0.50;0.50;;;10.60;99.90;;;;;;5060431;27;20116;-85
2022/10/23 05:45:06;;;;;;;0.50;0.50;;;10.60;99.90;;;;;;5059437;27;20445;-88
2022/10/23 05:47:48;;;;;;;0.50;0.50;;;10.70;99.90;;;;;;5042476;27;20039;-87
2022/10/23 05:50:23;;;;;;;0.50;0.50;;;10.80;99.90;;;;;;5030234;27;20083;-85
2022/10/23 05:53:11;;;;;;;0.60;0.60;;;10.60;99.90;;;;;;5033582;27;20086;-86
2022/10/23 05:55:42;;;;;;;0.60;0.60;;;10.70;99.90;;;;;;5038386;27;20817;-86
2022/10/23 05:58:22;;;;;;;0.50;0.50;;;10.80;99.90;;;;;;5019445;27;20126;-87
2022/10/23 06:01:33;;;;;;;0.60;0.60;;;10.80;99.90;;;;;;5048945;27;20059;-86
2022/10/23 06:04:05;;;;;;;0.60;0.60;;;10.80;99.90;;;;;;5035691;27;20244;-86
2022/10/23 06:06:38;;;;;;;0.60;0.60;;;10.80;99.90;;;;;;5033652;27;20892;-85
2022/10/23 06:09:18;;;;;;;0.50;0.50;;;10.80;99.90;;;;;;5047178;27;20143;-85
2022/10/23 06:11:52;;;;;;;0.50;0.50;;;10.90;99.90;;;;;;5004884;27;20578;-85
2022/10/23 06:14:18;;;;;;;0.50;0.50;;;10.90;99.90;;;;;;5003814;27;20080;-85
2022/10/23 06:20:08;;;;;;;0.50;0.50;;;10.90;99.90;;;;;;5039438;27;20998;-87
2022/10/23 06:22:37;;;;;;;0.50;0.50;;;10.90;99.90;;;;;;5036503;27;20049;-86
2022/10/23 06:25:06;;;;;;;0.60;0.60;;;11.00;99.90;;;;;;5046716;27;20053;-86
2022/10/23 06:27:59;;;;;;;0.50;0.50;;;11.00;99.90;;;;;;5039372;27;20038;-87
2022/10/23 06:30:38;;;;;;;0.50;0.50;;;11.00;99.90;;;;;;5056958;27;20378;-87
2022/10/23 06:33:09;;;;;;;0.50;0.50;;;10.90;99.90;;;;;;5025587;27;20376;-86
2022/10/23 06:35:35;;;;;;;0.50;0.50;;;11.00;99.90;;;;;;5036084;27;20039;-85
2022/10/23 06:38:07;;;;;;;0.50;0.50;;;10.90;99.90;;;;;;5051671;27;20045;-87
2022/10/23 06:40:33;;;;;;;0.60;0.60;;;10.90;99.90;;;;;;5018501;27;20158;-87
2022/10/23 06:43:03;;;;;;;0.50;0.50;;;11.00;99.90;;;;;;5057779;27;20188;-85
2022/10/23 06:45:45;;;;;;;0.50;0.50;;;11.10;99.90;;;;;;5029136;27;20058;-88
2022/10/23 06:48:22;;;;;;;0.50;0.50;;;11.00;99.90;;;;;;5002112;27;20047;-84
2022/10/23 06:50:58;;;;;;;0.50;0.50;;;11.10;99.90;;;;;;5038940;27;20105;-87
2022/10/23 06:53:54;;;;;;;0.50;0.50;;;11.10;99.90;;;;;;5037886;27;20062;-87
2022/10/23 06:56:34;;;;;;;;;;;;;;;;;;;;;
2022/10/23 06:59:08;;;;;;;0.52;0.52;;;11.20;99.90;;;;;;5055921;27;20042;-88
2022/10/23 07:01:34;;;;;;;0.50;0.50;;;11.20;99.90;;;;;;5055429;27;20051;-85
2022/10/23 07:04:01;;;;;;;0.50;0.50;;;11.20;99.90;;;;;;5054866;27;20061;-84
2022/10/23 07:06:38;;;;;;;0.50;0.50;;;11.20;99.90;;;;;;5053662;27;20039;-89
2022/10/23 07:09:26;;;;;;;0.50;0.50;;;11.30;99.90;;;;;;5041411;27;20431;-88
2022/10/23 07:15:31;;;;;;;0.50;0.50;;;11.30;99.90;;;;;;4937727;28;20383;-88
2022/10/23 07:18:37;;;;;;;;;;;;;;;;;;;;;
2022/10/23 07:21:37;;;;;;;0.60;0.60;;;11.30;99.90;;;;;;5013589;28;20073;-87
2022/10/23 07:24:09;;;;;;;0.50;0.50;;;11.40;99.90;;;;;;5002214;28;20047;-88
2022/10/23 07:31:30;;;;;;;0.50;0.50;;;11.40;99.90;;;;;;4976342;28;20538;-87
2022/10/23 07:34:35;;;;;;;0.50;0.50;;;11.50;99.90;;;;;;4862550;28;20790;-87
2022/10/23 07:37:02;;;;;;;0.50;0.50;;;11.50;99.90;;;;;;5039947;27;20714;-87
2022/10/23 07:39:43;;;;;;;0.50;0.50;;;11.60;99.90;;;;;;5040044;27;20051;-85
2022/10/23 07:42:12;;;;;;;0.50;0.50;;;11.60;99.90;;;;;;5036275;27;20046;-86
2022/10/23 07:44:43;;;;;;;0.60;0.60;;;11.70;99.90;;;;;;5067495;27;20859;-86
2022/10/23 07:47:15;;;;;;;0.60;0.60;;;11.80;99.90;;;;;;5036936;27;20053;-86
2022/10/23 07:49:42;;;;;;;0.50;0.50;;;11.90;99.90;;;;;;5022168;27;20112;-84
2022/10/23 07:52:09;;;;;;;0.50;0.50;;;11.90;99.90;;;;;;5055285;27;20413;-84
2022/10/23 07:54:35;;;;;;;0.50;0.50;;;11.90;99.90;;;;;;5054786;27;20716;-85
2022/10/23 07:57:01;;;;;;;0.50;0.50;;;12.00;99.90;;;;;;5068185;27;20046;-84
2022/10/23 07:59:32;;;;;;;0.50;0.50;;;12.10;99.90;;;;;;5019264;27;20436;-86
2022/10/23 08:01:58;;;;;;;0.50;0.50;;;12.20;99.90;;;;;;5039571;27;20634;-85
2022/10/23 08:04:25;;;;;;;0.50;0.50;;;12.20;99.90;;;;;;5050883;27;20584;-85
2022/10/23 08:06:55;;;;;;;0.50;0.50;;;12.30;99.90;;;;;;5054321;27;20089;-86
2022/10/23 08:09:45;;;;;;;0.50;0.50;;;12.20;99.90;;;;;;5037741;27;20051;-87
2022/10/23 08:12:22;;;;;;;0.50;0.50;;;12.20;99.90;;;;;;5060714;27;20058;-83
2022/10/23 08:14:48;;;;;;;0.50;0.50;;;12.30;99.90;;;;;;5056391;27;20039;-84
2022/10/23 08:17:14;;;;;;;0.50;0.50;;;12.30;99.90;;;;;;5056951;27;20857;-83
2022/10/23 08:19:45;;;;;;;0.50;0.50;;;12.40;99.90;;;;;;5053647;27;20481;-83
2022/10/23 08:22:13;;;;;;;0.50;0.50;;;12.50;99.90;;;;;;5049859;27;20229;-84
2022/10/23 08:24:43;;;;;;;0.50;0.50;;;12.40;99.90;;;;;;5032810;27;20074;-81
2022/10/23 08:27:09;;;;;;;0.50;0.50;;;12.50;99.90;;;;;;5046477;27;20060;-82
2022/10/23 08:29:35;;;;;;;0.50;0.50;;;12.70;99.90;;;;;;5045965;27;20491;-85
2022/10/23 08:32:01;;;;;;;0.50;0.50;;;12.80;99.90;;;;;;5046626;27;20047;-84
2022/10/23 08:34:32;;;;;;;0.50;0.50;;;12.90;99.90;;;;;;5035498;27;20929;-82
2022/10/23 08:36:58;;;;;;;0.50;0.50;;;12.90;99.90;;;;;;5036788;27;20183;-84
2022/10/23 08:39:24;;;;;;;0.50;0.50;;;13.00;99.90;;;;;;5022882;27;20374;-84
2022/10/23 08:41:53;;;;;;;0.50;0.50;;;13.10;99.90;;;;;;5033609;27;20468;-83
2022/10/23 08:44:33;;;;;;;0.50;0.50;;;13.30;99.90;;;;;;5036054;27;20698;-83
2022/10/23 08:47:13;;;;;;;0.50;0.50;;;13.40;99.90;;;;;;5053962;27;20047;-84
2022/10/23 08:49:48;;;;;;;0.60;0.60;;;13.50;99.90;;;;;;5055147;27;20081;-85
2022/10/23 08:52:41;;;;;;;0.50;0.50;;;13.50;99.90;;;;;;5045286;27;21120;-85
2022/10/23 08:55:35;;;;;;;0.50;0.50;;;13.60;99.90;;;;;;5055293;27;20055;-86
2022/10/23 08:58:28;;;;;;;0.50;0.50;;;13.90;99.90;;;;;;5054736;27;20043;-84
2022/10/23 09:00:57;;;;;;;0.50;0.50;;;13.90;99.90;;;;;;5050394;27;20159;-84
2022/10/23 09:03:23;;;;;;;0.50;0.50;;;14.00;99.90;;;;;;5000619;28;20627;-85
2022/10/23 09:06:04;;;;;;;0.50;0.50;;;14.00;99.90;;;;;;5017219;28;20142;-85
2022/10/23 09:08:41;;;;;;;0.50;0.50;;;14.10;99.90;;;;;;5032190;28;20058;-83
2022/10/23 09:11:25;;;;;;;0.50;0.50;;;14.20;99.90;;;;;;5029859;28;20628;-83
2022/10/23 09:14:00;;;;;;;;;;;14.20;99.90;;;;;;5028494;28;20059;-83
2022/10/23 09:16:44;;;;;;;0.50;0.50;;;14.20;99.90;;;;;;5036571;28;19928;-84
2022/10/23 09:19:14;;;;;;;0.50;0.50;;;14.20;99.90;;;;;;5039380;28;20435;-82
2022/10/23 09:21:41;;;;;;;0.50;0.50;;;14.20;99.90;;;;;;5041907;28;20186;-85
2022/10/23 09:24:24;;;;;;;0.50;0.50;;;14.20;99.90;;;;;;5022091;28;20128;-86
2022/10/23 09:26:52;;;;;;;0.50;0.50;;;14.20;99.90;;;;;;5013428;28;20139;-83
2022/10/23 09:29:34;;;;;;;0.50;0.50;;;14.30;99.90;;;;;;5011061;28;20856;-85
2022/10/23 09:32:08;;;;;;;0.50;0.50;;;14.30;99.90;;;;;;5039105;28;20054;-84
2022/10/23 09:34:34;;;;;;;0.50;0.50;;;14.40;99.90;;;;;;5022292;28;20060;-85
2022/10/23 09:37:22;;;;;;;0.50;0.50;;;14.40;99.90;;;;;;5039110;28;20093;-85
2022/10/23 09:39:59;;;;;;;0.50;0.50;;;14.50;99.90;;;;;;5023985;28;20517;-85
2022/10/23 09:42:25;;;;;;;0.50;0.50;;;14.50;99.90;;;;;;5036342;28;20043;-84
2022/10/23 09:44:56;;;;;;;0.50;0.50;;;14.60;99.90;;;;;;5004778;28;20214;-84
2022/10/23 09:47:24;;;;;;;0.50;0.50;;;14.70;99.90;;;;;;5036832;28;20172;-83
2022/10/23 09:49:55;;;;;;;0.50;0.50;;;14.70;99.90;;;;;;5035261;28;22778;-84
2022/10/23 09:52:31;;;;;;;0.50;0.50;;;14.80;99.90;;;;;;5043932;28;20047;-83
2022/10/23 09:55:00;;;;;;;0.50;0.50;;;14.80;99.90;;;;;;5043696;28;20159;-85
2022/10/23 09:57:45;;;;;;;0.50;0.50;;;14.90;99.90;;;;;;5043753;28;20048;-84
2022/10/23 10:00:22;;;;;;;0.50;0.50;;;15.00;99.90;;;;;;5044877;28;20036;-86
2022/10/23 10:03:04;;;;;;;0.50;0.50;;;15.20;99.90;;;;;;5055686;27;20055;-84
2022/10/23 10:05:41;;;;;;;0.45;0.45;;;15.20;99.90;;;;;;5061728;27;20682;-84
2022/10/23 10:08:19;;;;;;;0.40;0.40;;;15.20;99.90;;;;;;5029686;27;20048;-85
2022/10/23 10:11:11;;;;;;;0.50;0.50;;;15.20;99.90;;;;;;5065188;27;20096;-86
2022/10/23 10:14:18;;;;;;;0.47;0.47;;;15.20;99.90;;;;;;5011281;27;20832;-88
2022/10/23 10:16:53;;;;;;;0.50;0.50;;;15.20;99.90;;;;;;5041490;27;20054;-82
2022/10/23 10:20:16;;;;;;;0.50;0.50;;;15.40;99.90;;;;;;5061775;27;20069;-86
2022/10/23 10:22:55;;;;;;;0.50;0.50;;;15.40;99.90;;;;;;4983898;28;21198;-85
2022/10/23 10:25:49;;;;;;;0.40;0.40;;;15.50;99.90;;;;;;4957447;28;20053;-85
2022/10/23 10:28:42;;;;;;;0.50;0.50;;;15.50;99.90;;;;;;4935632;28;20206;-86
2022/10/23 10:31:45;;;;;;;0.40;0.40;;;15.60;99.90;;;;;;4952567;28;20495;-80
2022/10/23 10:34:36;;;;;;;0.40;0.40;;;15.50;99.90;;;;;;5016955;27;20146;-84
2022/10/23 10:37:34;;;;;;;0.40;0.40;;;15.60;99.90;;;;;;5045409;27;20078;-83
2022/10/23 10:40:19;;;;;;;0.50;0.50;;;15.60;99.90;;;;;;5035772;27;20043;-83
2022/10/23 10:43:07;;;;;;;0.50;0.50;;;15.60;99.90;;;;;;5070236;27;20384;-82
2022/10/23 10:46:25;;;;;;;0.40;0.40;;;15.60;99.90;;;;;;5049450;27;21028;-88
2022/10/23 10:49:24;;;;;;;0.50;0.50;;;15.70;99.90;;;;;;5053402;27;20042;-83
2022/10/23 10:52:19;;;;;;;0.50;0.50;;;15.70;99.90;;;;;;5051028;27;20284;-82
2022/10/23 10:55:02;;;;;;;0.50;0.50;;;15.70;99.90;;;;;;5022624;27;20397;-83
2022/10/23 10:57:33;;;;;;;0.50;0.50;;;15.80;99.90;;;;;;5065512;27;20126;-81
2022/10/23 11:00:17;;;;;;;0.43;0.43;;;15.70;99.90;;;;;;5059678;27;20920;-85
2022/10/23 11:03:11;;;;;;;0.50;0.50;;;15.70;99.90;;;;;;5041299;27;20081;-83
2022/10/23 11:05:59;;;;;;;0.50;0.50;;;15.90;99.90;;;;;;5044603;27;20054;-86
2022/10/23 11:08:38;;;;;;;0.40;0.40;;;15.90;99.90;;;;;;5036572;27;20039;-80
2022/10/23 11:11:15;;;;;;;0.50;0.50;;;15.90;99.90;;;;;;5063289;27;20042;-82
2022/10/23 11:13:43;;;;;;;0.47;0.47;;;15.90;99.90;;;;;;5059934;27;20103;-83
2022/10/23 11:16:16;;;;;;;0.40;0.40;;;15.90;99.90;;;;;;5048304;27;20053;-85
2022/10/23 11:19:39;;;;;;;;;;;;;;;;;;;;;
2022/10/23 11:22:48;;;;;;;0.40;0.40;;;15.80;99.90;;;;;;5075216;27;20053;-87
2022/10/23 11:26:54;;;;;;;0.50;0.50;;;15.80;99.90;;;;;;5041626;27;20130;-87
2022/10/23 11:29:02;;;;;;;0.50;0.50;;;15.80;99.90;;;;;;5030509;27;20476;-85
2022/10/23 11:31:56;;;;;;;0.50;0.50;;;15.90;99.90;;;;;;5061638;27;20071;-87
2022/10/23 11:34:56;;;;;;;;;;;;;;;;;;;;;
2022/10/23 11:37:25;;;;;;;0.40;0.40;;;16.00;99.90;;;;;;5061746;27;20055;-84
2022/10/23 11:40:07;;;;;;;0.40;0.40;;;16.10;99.90;;;;;;5029872;27;20058;-83
2022/10/23 11:42:55;;;;;;;0.40;0.40;;;16.10;99.90;;;;;;5049930;27;20533;-86
2022/10/23 11:45:31;;;;;;;0.45;0.45;;;16.10;99.90;;;;;;5028634;27;20053;-85
2022/10/23 11:48:22;;;;;;;0.50;0.50;;;16.20;99.90;;;;;;5038010;27;20055;-84
2022/10/23 11:50:53;;;;;;;0.50;0.50;;;16.10;99.90;;;;;;5056447;27;20046;-84
2022/10/23 11:53:27;;;;;;;0.50;0.50;;;16.20;99.90;;;;;;5033310;27;20479;-85
2022/10/23 11:56:00;;;;;;;0.50;0.50;;;16.20;99.90;;;;;;5032354;27;20436;-87
2022/10/23 11:59:02;;;;;;;0.50;0.50;;;16.20;99.90;;;;;;5048438;27;20039;-87
2022/10/23 12:01:48;;;;;;;0.43;0.43;;;16.30;99.90;;;;;;5025529;27;20054;-85
2022/10/23 12:04:47;;;;;;;0.50;0.50;;;16.20;99.90;;;;;;5047527;27;20520;-86
2022/10/23 12:07:35;;;;;;;0.45;0.45;;;16.30;99.90;;;;;;5043315;27;20291;-83
2022/10/23 12:10:37;;;;;;;0.50;0.50;;;16.30;99.90;;;;;;5052645;27;20047;-88
2022/10/23 12:13:35;;;;;;;0.50;0.50;;;16.30;99.90;;;;;;5054672;27;20047;-85
2022/10/23 12:16:11;;;;;;;0.47;0.47;;;16.40;99.90;;;;;;5036089;27;20039;-87
2022/10/23 12:18:51;;;;;;;0.40;0.40;;;16.30;99.90;;;;;;5040886;27;20050;-85
2022/10/23 12:21:27;;;;;;;0.40;0.40;;;16.40;99.90;;;;;;5043588;27;20107;-86
2022/10/23 12:24:16;;;;;;;0.40;0.40;;;16.40;99.90;;;;;;5056556;27;20711;-84
2022/10/23 12:27:07;;;;;;;0.40;0.40;;;16.50;99.90;;;;;;5053765;27;20047;-82
2022/10/23 12:29:58;;;;;;;0.50;0.50;;;16.40;99.90;;;;;;5049508;27;20039;-85
2022/10/23 12:32:57;;;;;;;0.50;0.50;;;16.50;99.90;;;;;;5053433;27;20819;-84
2022/10/23 12:35:41;;;;;;;0.40;0.40;;;16.60;99.90;;;;;;5053887;27;20251;-85
2022/10/23 12:38:27;;;;;;;0.50;0.50;;;16.50;99.90;;;;;;5055791;27;20513;-83
2022/10/23 12:41:00;;;;;;;0.50;0.50;;;16.50;99.90;;;;;;5058202;27;20241;-84
2022/10/23 12:43:35;;;;;;;0.40;0.40;;;16.50;99.90;;;;;;5056446;27;20078;-82
2022/10/23 12:46:38;;;;;;;0.40;0.40;;;16.50;99.90;;;;;;5071717;27;20582;-86
2022/10/23 12:49:22;;;;;;;0.50;0.50;;;16.60;99.90;;;;;;5062134;27;20042;-85
2022/10/23 12:52:02;;;;;;;0.50;0.50;;;16.50;99.90;;;;;;5073850;27;20043;-87
2022/10/23 12:54:37;;;;;;;0.40;0.40;;;16.60;99.90;;;;;;5062423;27;20035;-86
2022/10/23 12:57:35;;;;;;;0.40;0.40;;;16.60;99.90;;;;;;5062314;27;20399;-87
2022/10/23 13:00:14;;;;;;;0.50;0.50;;;16.60;99.90;;;;;;5045529;27;20043;-87
2022/10/23 13:02:43;;;;;;;0.50;0.50;;;16.50;99.90;;;;;;5062292;27;20539;-86
2022/10/23 13:05:27;;;;;;;0.40;0.40;;;16.50;99.90;;;;;;5082900;27;20046;-87
2022/10/23 13:08:01;;;;;;;0.50;0.50;;;16.50;99.90;;;;;;5059682;27;20074;-86
2022/10/23 13:10:30;;;;;;;0.50;0.50;;;16.50;99.90;;;;;;5052761;27;20084;-87
2022/10/23 13:13:06;;;;;;;0.50;0.50;;;16.60;99.90;;;;;;5060252;27;20047;-85
2022/10/23 13:15:55;;;;;;;0.50;0.50;;;16.60;99.90;;;;;;5074669;27;20099;-85
2022/10/23 13:18:24;;;;;;;0.40;0.40;;;16.70;99.90;;;;;;5038317;27;20594;-84
2022/10/23 13:20:53;;;;;;;0.50;0.50;;;16.70;99.90;;;;;;5054278;27;20038;-84
2022/10/23 13:23:40;;;;;;;0.40;0.40;;;16.80;99.90;;;;;;5049008;27;20051;-87
2022/10/23 13:26:22;;;;;;;0.40;0.40;;;16.80;99.90;;;;;;5067348;27;20062;-84
2022/10/23 13:28:49;;;;;;;0.40;0.40;;;16.80;99.90;;;;;;5044587;27;20067;-79
2022/10/23 13:31:15;;;;;;;0.50;0.50;;;16.70;99.90;;;;;;5051365;27;20440;-80
2022/10/23 13:33:45;;;;;;;0.40;0.40;;;16.80;99.90;;;;;;5064987;27;20072;-85
2022/10/23 13:36:15;;;;;;;0.50;0.50;;;16.80;99.90;;;;;;5060582;27;20047;-85
2022/10/23 13:39:02;;;;;;;0.40;0.40;;;16.80;99.90;;;;;;5038179;27;20078;-87
2022/10/23 13:41:35;;;;;;;0.43;0.43;;;16.80;99.90;;;;;;5050191;27;21499;-86
2022/10/23 13:44:03;;;;;;;0.50;0.50;;;16.80;99.90;;;;;;5053770;27;20053;-87
2022/10/23 13:46:30;;;;;;;0.40;0.40;;;16.80;99.90;;;;;;5028940;27;20527;-83
2022/10/23 13:48:57;;;;;;;0.40;0.40;;;16.70;99.90;;;;;;5040297;27;20066;-85
2022/10/23 13:51:31;;;;;;;0.40;0.40;;;16.80;99.90;;;;;;5034579;27;20054;-82
2022/10/23 13:53:57;;;;;;;0.50;0.50;;;16.70;99.90;;;;;;5048496;27;20753;-81
2022/10/23 13:56:25;;;;;;;0.50;0.50;;;16.70;99.90;;;;;;5066722;27;20367;-86
2022/10/23 13:58:51;;;;;;;0.40;0.40;;;16.70;99.90;;;;;;5057392;27;20783;-85
2022/10/23 14:01:26;;;;;;;0.40;0.40;;;16.70;99.90;;;;;;5032810;27;20050;-83
2022/10/23 14:03:54;;;;;;;0.40;0.40;;;16.70;99.90;;;;;;5043541;27;20134;-86
2022/10/23 14:06:26;;;;;;;0.50;0.50;;;16.70;99.90;;;;;;5038824;27;21336;-86
2022/10/23 14:08:52;;;;;;;0.40;0.40;;;16.70;99.90;;;;;;5034284;27;20465;-81
2022/10/23 14:11:23;;;;;;;0.50;0.50;;;16.70;99.90;;;;;;5030931;27;20512;-85
2022/10/23 14:13:51;;;;;;;0.40;0.40;;;16.70;99.90;;;;;;5048587;27;20049;-82
2022/10/23 14:16:18;;;;;;;0.45;0.45;;;16.70;99.90;;;;;;5066984;27;20787;-84